Unlu-5 — TCON5 — position and weather

sailwx.info

Track history (hours):
 
Tides and Currents Weather Stations Pressure Air Temp Water Temp Dewpoint Dewpoint Depression Visibility Wind Speed Wind Dir Waves Ship Positions

Unlu-5

Last reported at 2016-Feb-09 02:19 UTC. Time now 2016-Feb-14 16:59 UTC.
Position N 38°42' E 008°37'.

Length 99 m; draft 6.8 m.

Type: Ship. MMSI: 271000854.

Date/timePositionNaut miles runAvg speedWind from/ knotsBaromVisibWave heightAir tempDewpointWater temp
2016-Feb-09 02:19N 38°42' E 008°37'5 6.5
2016-Feb-09 01:33N 38°44' E 008°43'7 6.8
2016-Feb-09 00:33N 38°46' E 008°51'10 6.6
2016-Feb-08 23:03N 38°49' E 009°03'3 6.8
2016-Feb-08 22:32N 38°51' E 009°08'7 6.6
2016-Feb-08 21:33N 38°53' E 009°15'7 6.8
2016-Feb-08 20:33N 38°55' E 009°24'  
2016-Feb-03 18:26N 43°07' E 005°17'8 8.9
2016-Feb-03 17:33N 43°11' E 005°09'9 9.1
2016-Feb-03 16:33N 43°18' E 005°01'7 7.3
2016-Feb-03 15:33N 43°25' E 004°56'0 0.1
2016-Feb-03 14:33N 43°25' E 004°56'0 0.0
2016-Feb-03 13:33N 43°25' E 004°56'0 0.0
2016-Feb-03 12:33N 43°25' E 004°56'0 0.0
2016-Feb-03 11:33N 43°25' E 004°56'0 0.0
2016-Feb-03 10:33N 43°25' E 004°56'0 0.0
2016-Feb-03 09:33N 43°25' E 004°56'0 0.0
2016-Feb-03 08:33N 43°25' E 004°56'0 0.0
2016-Feb-03 07:33N 43°25' E 004°56'0 0.0
2016-Feb-03 06:27N 43°25' E 004°56'0 0.0
2016-Feb-03 05:30N 43°25' E 004°56'0 0.0
2016-Feb-03 04:33N 43°25' E 004°56'0 0.0
2016-Feb-03 03:33N 43°25' E 004°56'0 0.0
2016-Feb-03 02:33N 43°25' E 004°56'0 0.0
2016-Feb-03 01:33N 43°25' E 004°56'0 0.0
2016-Feb-03 00:33N 43°25' E 004°56'0 0.0
2016-Feb-02 23:33N 43°25' E 004°56'0 0.0
2016-Feb-02 22:33N 43°25' E 004°56'0 0.0
2016-Feb-02 21:33N 43°25' E 004°56'0 0.0
2016-Feb-02 20:30N 43°25' E 004°56'0 0.1
2016-Feb-02 19:33N 43°25' E 004°56'0 0.0
2016-Feb-02 18:30N 43°25' E 004°56'0 0.0
2016-Feb-02 17:33N 43°25' E 004°56'0 0.0
2016-Feb-02 16:21N 43°25' E 004°56'0 0.0
2016-Feb-02 15:33N 43°25' E 004°56'0 0.0
2016-Feb-02 14:33N 43°25' E 004°56'0 0.0
2016-Feb-02 13:33N 43°25' E 004°56'0 0.0
2016-Feb-02 12:33N 43°25' E 004°56'0 0.1
2016-Feb-02 11:30N 43°25' E 004°56'0 0.0
2016-Feb-02 10:33N 43°25' E 004°56'0 0.0
2016-Feb-02 09:33N 43°25' E 004°56'0 0.0
2016-Feb-02 08:33N 43°25' E 004°56'0 0.0
2016-Feb-02 07:33N 43°25' E 004°56'0 0.0
2016-Feb-02 06:30N 43°25' E 004°56'0 0.0
2016-Feb-02 05:33N 43°25' E 004°56'0 0.0
2016-Feb-02 04:30N 43°25' E 004°56'0 0.0
2016-Feb-02 03:33N 43°25' E 004°56'0 0.0
2016-Feb-02 02:33N 43°25' E 004°56'0 0.0
2016-Feb-02 01:33N 43°25' E 004°56'0 0.0
2016-Feb-02 00:30N 43°25' E 004°56'0 0.0
2016-Feb-01 23:33N 43°25' E 004°56'0 0.0
2016-Feb-01 22:33N 43°25' E 004°56'0 0.0
2016-Feb-01 21:33N 43°25' E 004°56'0 0.0
2016-Feb-01 20:24N 43°25' E 004°56'0 0.0
2016-Feb-01 19:33N 43°25' E 004°56'0 0.0
2016-Feb-01 18:33N 43°25' E 004°56'0 0.0
2016-Feb-01 17:33N 43°25' E 004°56'0 0.0
2016-Feb-01 16:33N 43°25' E 004°56'0 0.0
2016-Feb-01 15:33N 43°25' E 004°56'0 0.0
2016-Feb-01 14:33N 43°25' E 004°56'0 0.0
2016-Feb-01 13:33N 43°25' E 004°56'0 0.0
2016-Feb-01 12:33N 43°25' E 004°56'0 0.0
2016-Feb-01 11:33N 43°25' E 004°56'0 0.1
2016-Feb-01 10:33N 43°25' E 004°56'0 0.0
2016-Feb-01 09:33N 43°25' E 004°56'0 0.0
2016-Feb-01 08:33N 43°25' E 004°56'0 0.0
2016-Feb-01 07:33N 43°25' E 004°56'0 0.0
2016-Feb-01 06:33N 43°25' E 004°56'0 0.0
2016-Feb-01 05:33N 43°25' E 004°56'0 0.0
2016-Feb-01 04:33N 43°25' E 004°56'0 0.0
2016-Feb-01 03:24N 43°25' E 004°56'0 0.0
2016-Feb-01 02:33N 43°25' E 004°56'0 0.0
2016-Feb-01 01:33N 43°25' E 004°56'0 0.0
2016-Feb-01 00:33N 43°25' E 004°56'0 0.0
2016-Jan-31 23:33N 43°25' E 004°56'0 0.0
2016-Jan-31 22:33N 43°25' E 004°56'0 0.0
2016-Jan-31 21:33N 43°25' E 004°56'0 0.0
2016-Jan-31 20:33N 43°25' E 004°56'0 0.0
2016-Jan-31 19:33N 43°25' E 004°56'0 0.0
2016-Jan-31 18:33N 43°25' E 004°56'0 0.0
2016-Jan-31 17:33N 43°25' E 004°56'0 0.0
2016-Jan-31 16:33N 43°25' E 004°56'0 0.0
2016-Jan-31 15:33N 43°25' E 004°56'0 0.0
2016-Jan-31 14:33N 43°25' E 004°56'0 0.0
2016-Jan-31 13:33N 43°25' E 004°56'0 0.0
2016-Jan-31 12:33N 43°25' E 004°56'0 0.0
2016-Jan-31 11:33N 43°25' E 004°56'0 0.0
2016-Jan-31 10:33N 43°25' E 004°56'0 0.0
2016-Jan-31 09:33N 43°25' E 004°56'0 0.0
2016-Jan-31 08:33N 43°25' E 004°56'0 0.0
2016-Jan-31 07:33N 43°25' E 004°56'0 0.0
2016-Jan-31 06:33N 43°25' E 004°56'0 0.0
2016-Jan-31 05:33N 43°25' E 004°56'0 0.0
2016-Jan-31 04:33N 43°25' E 004°56'0 0.0
2016-Jan-31 03:33N 43°25' E 004°56'0 0.0
2016-Jan-31 02:33N 43°25' E 004°56'0 0.0
2016-Jan-31 01:33N 43°25' E 004°56'0 0.0
2016-Jan-31 00:33N 43°25' E 004°56'0 0.0
2016-Jan-30 23:33N 43°25' E 004°56'0 0.0
2016-Jan-30 22:33N 43°25' E 004°56'0 0.0
2016-Jan-30 21:33N 43°25' E 004°56'0 0.0
2016-Jan-30 20:30N 43°25' E 004°56'0 0.1
2016-Jan-30 19:33N 43°25' E 004°55'0 0.1
2016-Jan-30 18:33N 43°25' E 004°56'0 0.0
2016-Jan-30 17:33N 43°25' E 004°56'0 0.0
2016-Jan-30 16:33N 43°25' E 004°55'0 0.0
2016-Jan-30 15:33N 43°25' E 004°56'0 0.0
2016-Jan-30 14:33N 43°25' E 004°56'0 0.0
2016-Jan-30 13:33N 43°25' E 004°56'0 0.0
2016-Jan-30 12:33N 43°25' E 004°55'0 0.0
2016-Jan-30 11:33N 43°25' E 004°55'0 0.1
2016-Jan-30 10:33N 43°25' E 004°55'0 0.0
2016-Jan-30 09:33N 43°25' E 004°55'0 0.0
2016-Jan-30 08:33N 43°25' E 004°55'0 0.0
2016-Jan-30 07:33N 43°25' E 004°55'0 0.0
2016-Jan-30 06:33N 43°25' E 004°55'0 0.0
2016-Jan-30 05:33N 43°25' E 004°55'0 0.0
2016-Jan-30 04:27N 43°25' E 004°55'0 0.0
2016-Jan-30 03:27N 43°25' E 004°55'0 0.0
2016-Jan-30 02:33N 43°25' E 004°55'  
Track history (hours):
 
Tides and Currents Weather Stations Pressure Air Temp Water Temp Dewpoint Dewpoint Depression Visibility Wind Speed Wind Dir Waves Ship Positions

Unlu-5

Last reported at 2016-Feb-09 02:19 UTC. Time now 2016-Feb-14 16:59 UTC.
Position N 38°42' E 008°37'.

Length 99 m; draft 6.8 m.

Type: Ship. MMSI: 271000854.

Date/timePositionNaut miles runAvg speedWind from/ knotsBaromVisibWave heightAir tempDewpointWater temp
2016-Feb-09 02:19N 38°42' E 008°37'5 6.5
2016-Feb-09 01:33N 38°44' E 008°43'7 6.8
2016-Feb-09 00:33N 38°46' E 008°51'10 6.6
2016-Feb-08 23:03N 38°49' E 009°03'3 6.8
2016-Feb-08 22:32N 38°51' E 009°08'7 6.6
2016-Feb-08 21:33N 38°53' E 009°15'7 6.8
2016-Feb-08 20:33N 38°55' E 009°24'  
2016-Feb-03 18:26N 43°07' E 005°17'8 8.9
2016-Feb-03 17:33N 43°11' E 005°09'9 9.1
2016-Feb-03 16:33N 43°18' E 005°01'7 7.3
2016-Feb-03 15:33N 43°25' E 004°56'0 0.1
2016-Feb-03 14:33N 43°25' E 004°56'0 0.0
2016-Feb-03 13:33N 43°25' E 004°56'0 0.0
2016-Feb-03 12:33N 43°25' E 004°56'0 0.0
2016-Feb-03 11:33N 43°25' E 004°56'0 0.0
2016-Feb-03 10:33N 43°25' E 004°56'0 0.0
2016-Feb-03 09:33N 43°25' E 004°56'0 0.0
2016-Feb-03 08:33N 43°25' E 004°56'0 0.0
2016-Feb-03 07:33N 43°25' E 004°56'0 0.0
2016-Feb-03 06:27N 43°25' E 004°56'0 0.0
2016-Feb-03 05:30N 43°25' E 004°56'0 0.0
2016-Feb-03 04:33N 43°25' E 004°56'0 0.0
2016-Feb-03 03:33N 43°25' E 004°56'0 0.0
2016-Feb-03 02:33N 43°25' E 004°56'0 0.0
2016-Feb-03 01:33N 43°25' E 004°56'0 0.0
2016-Feb-03 00:33N 43°25' E 004°56'0 0.0
2016-Feb-02 23:33N 43°25' E 004°56'0 0.0
2016-Feb-02 22:33N 43°25' E 004°56'0 0.0
2016-Feb-02 21:33N 43°25' E 004°56'0 0.0
2016-Feb-02 20:30N 43°25' E 004°56'0 0.1
2016-Feb-02 19:33N 43°25' E 004°56'0 0.0
2016-Feb-02 18:30N 43°25' E 004°56'0 0.0
2016-Feb-02 17:33N 43°25' E 004°56'0 0.0
2016-Feb-02 16:21N 43°25' E 004°56'0 0.0
2016-Feb-02 15:33N 43°25' E 004°56'0 0.0
2016-Feb-02 14:33N 43°25' E 004°56'0 0.0
2016-Feb-02 13:33N 43°25' E 004°56'0 0.0
2016-Feb-02 12:33N 43°25' E 004°56'0 0.1
2016-Feb-02 11:30N 43°25' E 004°56'0 0.0
2016-Feb-02 10:33N 43°25' E 004°56'0 0.0
2016-Feb-02 09:33N 43°25' E 004°56'0 0.0
2016-Feb-02 08:33N 43°25' E 004°56'0 0.0
2016-Feb-02 07:33N 43°25' E 004°56'0 0.0
2016-Feb-02 06:30N 43°25' E 004°56'0 0.0
2016-Feb-02 05:33N 43°25' E 004°56'0 0.0
2016-Feb-02 04:30N 43°25' E 004°56'0 0.0
2016-Feb-02 03:33N 43°25' E 004°56'0 0.0
2016-Feb-02 02:33N 43°25' E 004°56'0 0.0
2016-Feb-02 01:33N 43°25' E 004°56'0 0.0
2016-Feb-02 00:30N 43°25' E 004°56'0 0.0
2016-Feb-01 23:33N 43°25' E 004°56'0 0.0
2016-Feb-01 22:33N 43°25' E 004°56'0 0.0
2016-Feb-01 21:33N 43°25' E 004°56'0 0.0
2016-Feb-01 20:24N 43°25' E 004°56'0 0.0
2016-Feb-01 19:33N 43°25' E 004°56'0 0.0
2016-Feb-01 18:33N 43°25' E 004°56'0 0.0
2016-Feb-01 17:33N 43°25' E 004°56'0 0.0
2016-Feb-01 16:33N 43°25' E 004°56'0 0.0
2016-Feb-01 15:33N 43°25' E 004°56'0 0.0
2016-Feb-01 14:33N 43°25' E 004°56'0 0.0
2016-Feb-01 13:33N 43°25' E 004°56'0 0.0
2016-Feb-01 12:33N 43°25' E 004°56'0 0.0
2016-Feb-01 11:33N 43°25' E 004°56'0 0.1
2016-Feb-01 10:33N 43°25' E 004°56'0 0.0
2016-Feb-01 09:33N 43°25' E 004°56'0 0.0
2016-Feb-01 08:33N 43°25' E 004°56'0 0.0
2016-Feb-01 07:33N 43°25' E 004°56'0 0.0
2016-Feb-01 06:33N 43°25' E 004°56'0 0.0
2016-Feb-01 05:33N 43°25' E 004°56'0 0.0
2016-Feb-01 04:33N 43°25' E 004°56'0 0.0
2016-Feb-01 03:24N 43°25' E 004°56'0 0.0
2016-Feb-01 02:33N 43°25' E 004°56'0 0.0
2016-Feb-01 01:33N 43°25' E 004°56'0 0.0
2016-Feb-01 00:33N 43°25' E 004°56'0 0.0
2016-Jan-31 23:33N 43°25' E 004°56'0 0.0
2016-Jan-31 22:33N 43°25' E 004°56'0 0.0
2016-Jan-31 21:33N 43°25' E 004°56'0 0.0
2016-Jan-31 20:33N 43°25' E 004°56'0 0.0
2016-Jan-31 19:33N 43°25' E 004°56'0 0.0
2016-Jan-31 18:33N 43°25' E 004°56'0 0.0
2016-Jan-31 17:33N 43°25' E 004°56'0 0.0
2016-Jan-31 16:33N 43°25' E 004°56'0 0.0
2016-Jan-31 15:33N 43°25' E 004°56'0 0.0
2016-Jan-31 14:33N 43°25' E 004°56'0 0.0
2016-Jan-31 13:33N 43°25' E 004°56'0 0.0
2016-Jan-31 12:33N 43°25' E 004°56'0 0.0
2016-Jan-31 11:33N 43°25' E 004°56'0 0.0
2016-Jan-31 10:33N 43°25' E 004°56'0 0.0
2016-Jan-31 09:33N 43°25' E 004°56'0 0.0
2016-Jan-31 08:33N 43°25' E 004°56'0 0.0
2016-Jan-31 07:33N 43°25' E 004°56'0 0.0
2016-Jan-31 06:33N 43°25' E 004°56'0 0.0
2016-Jan-31 05:33N 43°25' E 004°56'0 0.0
2016-Jan-31 04:33N 43°25' E 004°56'0 0.0
2016-Jan-31 03:33N 43°25' E 004°56'0 0.0
2016-Jan-31 02:33N 43°25' E 004°56'0 0.0
2016-Jan-31 01:33N 43°25' E 004°56'0 0.0
2016-Jan-31 00:33N 43°25' E 004°56'0 0.0
2016-Jan-30 23:33N 43°25' E 004°56'0 0.0
2016-Jan-30 22:33N 43°25' E 004°56'0 0.0
2016-Jan-30 21:33N 43°25' E 004°56'0 0.0
2016-Jan-30 20:30N 43°25' E 004°56'0 0.1
2016-Jan-30 19:33N 43°25' E 004°55'0 0.1
2016-Jan-30 18:33N 43°25' E 004°56'0 0.0
2016-Jan-30 17:33N 43°25' E 004°56'0 0.0
2016-Jan-30 16:33N 43°25' E 004°55'0 0.0
2016-Jan-30 15:33N 43°25' E 004°56'0 0.0
2016-Jan-30 14:33N 43°25' E 004°56'0 0.0
2016-Jan-30 13:33N 43°25' E 004°56'0 0.0
2016-Jan-30 12:33N 43°25' E 004°55'0 0.0
2016-Jan-30 11:33N 43°25' E 004°55'0 0.1
2016-Jan-30 10:33N 43°25' E 004°55'0 0.0
2016-Jan-30 09:33N 43°25' E 004°55'0 0.0
2016-Jan-30 08:33N 43°25' E 004°55'0 0.0
2016-Jan-30 07:33N 43°25' E 004°55'0 0.0
2016-Jan-30 06:33N 43°25' E 004°55'0 0.0
2016-Jan-30 05:33N 43°25' E 004°55'0 0.0
2016-Jan-30 04:27N 43°25' E 004°55'0 0.0
2016-Jan-30 03:27N 43°25' E 004°55'0 0.0
2016-Jan-30 02:33N 43°25' E 004°55'  

Dump ship's entire track history